Latest Conditions
At L.F.Wade Int. Airport
Recorded at 9:55 pm
Mostly Cloudy
Temp.: 
18°C/65°F
Humidity: 
57%
Wind: 
W 19KT
or 22mph
UV Index: 
0
Island Observations
 
Observations
Wednesday, December 13, 2017

Observations are in local time and taken at least once an hour, or upon the start and end of specified events such as showers and thunderstorms.

Time Sky / Weather Wind Speed/Gusts Temp. R.H. Pressure
     knots (mph)  °C (°F)  %  mb / "Hg
 21:55 Mostly Cloudy  W 19/0 (22/0) 18(65) 57 1014 / 29.93
 20:55 Mostly Cloudy  W 21/0 (24/0) 18(65) 59 1013 / 29.92
 19:55 Mostly Cloudy  W 26/0 (30/0) 19(66) 57 1013 / 29.90
 18:55 Mostly Cloudy Showers WNW 24/0 (28/0) 19(66) 60 1012 / 29.87
 17:55 Mostly Cloudy Showers WNW 25/0 (29/0) 19(67) 62 1010 / 29.83
 17:24 Mostly Cloudy Showers W 21/0 (24/0) 20(67) 64 1010 / 29.82
 16:55 Mostly Cloudy Showers W 24/0 (28/0) 20(67) 64 1009 / 29.80
 16:28 Mostly Cloudy Showers W 25/0 (29/0) 21(69) 63 1009 / 29.79
 16:05 Mostly Cloudy Showers W 24/0 (28/0) 21(69) 63 1008 / 29.78
 15:55 Mostly Cloudy Showers W 25/0 (29/0) 21(69) 63 1008 / 29.76
 15:03 Mostly Cloudy Showers W 25/0 (29/0) 20(69) 69 1007 / 29.73
 14:55 Mostly Cloudy Showers W 25/0 (29/0) 20(69) 69 1006 / 29.70
 13:55 Partly Cloudy  W 25/35 (29/40) 22(72) 54 1006 / 29.70
 12:55 Partly Cloudy  W 26/0 (30/0) 22(71) 59 1006 / 29.70
 11:55 Mostly Cloudy Showers W 24/0 (28/0) 21(70) 63 1006 / 29.70
 11:30 Mostly Cloudy Showers W 27/0 (31/0) 21(70) 70 1006 / 29.72
 10:55 Mostly Cloudy  W 24/0 (28/0) 21(70) 70 1006 / 29.70
 10:11 Mostly Cloudy Showers WSW 27/46 (31/53) 22(72) 83 1006 / 29.70
 10:03 Mostly Cloudy Showers WSW 25/46 (29/53) 22(72) 66 1006 / 29.70
 09:55 Mostly Cloudy Showers WSW 25/0 (29/0) 22(72) 66 1006 / 29.70
 08:55 Mostly Cloudy Showers WSW 24/0 (28/0) 22(71) 67 1005 / 29.68
 07:55 Mostly Cloudy  WSW 26/0 (30/0) 22(72) 66 1004 / 29.66
 06:55 Mostly Cloudy  WSW 24/0 (28/0) 22(71) 69 1004 / 29.64
 05:55 Mostly Cloudy  WSW 27/0 (31/0) 21(70) 69 1004 / 29.64
 05:11 Mostly Cloudy Showers WSW 18/0 (21/0) 20(67) 88 1004 / 29.65
 04:55 Overcast Showers SW 10/0 (12/0) 20(67) 88 1004 / 29.65
 04:34 Overcast Showers SW 12/0 (14/0) 19(67) 91 1004 / 29.65
 03:55 Overcast Showers WSW 22/0 (25/0) 19(67) 91 1004 / 29.65
 03:21 Overcast Showers WSW 22/33 (25/38) 22(72) 75 1004 / 29.66
 03:04 Overcast Showers SSW 19/0 (22/0) 22(72) 75 1004 / 29.66
 02:55 Overcast Showers SSW 15/0 (17/0) 22(72) 75 1004 / 29.66
 01:55 Mostly Cloudy  SSW 14/0 (16/0) 22(71) 77 1005 / 29.69
 00:55 Mostly Cloudy Showers S 15/0 (17/0) 21(71) 79 1006 / 29.72
 00:10 Mostly Cloudy  S 13/0 (15/0) 21(70) 82 1007 / 29.75
 23:55 Mostly Cloudy Showers S 10/0 (12/0) 21(70) 82 1007 / 29.75
 23:40 Mostly Cloudy Showers SSW 10/0 (12/0) 21(69) 77 1008 / 29.76
 23:32 Mostly Cloudy Showers S 12/0 (14/0) 21(69) 77 1008 / 29.78
 22:55 Mostly Cloudy  S 10/0 (12/0) 21(69) 77 1008 / 29.78
 21:55 Mostly Cloudy  S 10/0 (12/0) 21(69) 75 1010 / 29.82
 20:55 Partly Cloudy  SSE 13/0 (15/0) 21(69) 74 1010 / 29.84
 19:55 Mostly Cloudy  SSE 11/0 (13/0) 20(69) 71 1011 / 29.86
 18:55 Partly Cloudy  SSE 9/0 (10/0) 20(69) 68 1012 / 29.87
 17:55 Partly Cloudy  S 8/0 (9/0) 20(68) 68 1012 / 29.89
 16:55 Few Clouds  S 8/0 (9/0) 20(68) 63 1012 / 29.88
 15:55 Few Clouds  S 6/0 (7/0) 21(69) 58 1012 / 29.88
 14:55 Few Clouds  S 8/0 (9/0) 21(70) 54 1013 / 29.90
 13:55 Few Clouds  S 7/0 (8/0) 21(71) 54 1013 / 29.92
 12:55 Few Clouds  SSE 7/0 (8/0) 21(70) 51 1014 / 29.94
 11:55 Few Clouds  SE 4/0 (5/0) 21(70) 50 1015 / 29.97
 10:55 Few Clouds  VRB 2/0 (2/0) 21(70) 49 1017 / 30.02
 09:55 Few Clouds  VRB 1/0 (1/0) 21(70) 52 1017 / 30.03
 08:55 Few Clouds  E 1/0 (1/0) 20(68) 52 1017 / 30.02
 07:55 Few Clouds  NE 1/0 (1/0) 16(61) 89 1017 / 30.02
 06:55 Few Clouds  ENE 2/0 (2/0) 14(58) 89 1016 / 30.01
 05:55 Few Clouds  N 3/0 (3/0) 16(60) 89 1016 / 30.01
 04:55 Few Clouds  N 2/0 (2/0) 16(60) 84 1016 / 30.01
 03:55 Partly Cloudy  VRB 2/0 (2/0) 19(66) 57 1017 / 30.02
 02:55 Partly Cloudy  NW 5/0 (6/0) 19(65) 62 1017 / 30.03
 01:55 Mostly Cloudy  NW 4/0 (5/0) 19(66) 61 1017 / 30.03
 00:55 Mostly Cloudy  NW 4/0 (5/0) 19(66) 62 1017 / 30.04
 23:55 Mostly Cloudy  N 3/0 (3/0) 19(67) 63 1017 / 30.04
 22:55 Mostly Cloudy  NW 2/0 (2/0) 19(66) 64 1018 / 30.05
 21:55 Mostly Cloudy  NNW 5/0 (6/0) 19(66) 64 1018 / 30.05
 20:55 Partly Cloudy  N 4/0 (5/0) 19(66) 66 1018 / 30.06
 19:55 Partly Cloudy  N 6/0 (7/0) 19(66) 65 1018 / 30.06
 18:55 Mostly Cloudy  N 6/0 (7/0) 19(66) 65 1017 / 30.04
 17:55 Mostly Cloudy  N 5/0 (6/0) 19(66) 66 1017 / 30.04
 16:55 Mostly Cloudy  N 7/0 (8/0) 20(68) 66 1017 / 30.03
 15:55 Mostly Cloudy  N 8/0 (9/0) 20(69) 70 1017 / 30.03
 14:55 Mostly Cloudy  N 8/0 (9/0) 21(70) 71 1017 / 30.04
 13:55 Mostly Cloudy  N 8/0 (9/0) 20(67) 75 1017 / 30.03
 12:55 Overcast  N 10/0 (12/0) 20(68) 76 1017 / 30.02
 11:55 Overcast Showers N 4/0 (5/0) 20(69) 76 1019 / 30.09
 10:55 Mostly Cloudy Showers NNE 6/0 (7/0) 20(68) 74 1019 / 30.09
 09:55 Mostly Cloudy Showers NE 9/0 (10/0) 20(68) 78 1019 / 30.10
 09:33 Overcast Showers NE 8/0 (9/0) 20(68) 78 1018 / 30.07
 08:55 Overcast  NNE 9/0 (10/0) 20(68) 78 1019 / 30.09
 07:55 Overcast  N 7/0 (8/0) 20(68) 74 1019 / 30.09
 06:55 Overcast Showers NNE 8/0 (9/0) 19(67) 77 1018 / 30.05
 05:55 Overcast Showers NNW 5/0 (6/0) 19(66) 78 1018 / 30.06
 04:55 Overcast Showers N 7/0 (8/0) 19(66) 82 1017 / 30.04
 03:55 Overcast Showers N 7/0 (8/0) 19(66) 81 1017 / 30.02
 02:55 Overcast Showers NNW 4/0 (5/0) 19(67) 76 1018 / 30.07
 01:55 Overcast Showers NNW 5/0 (6/0) 18(64) 90 1018 / 30.05
 01:34 Overcast Showers NNW 5/0 (6/0) 19(66) 85 1018 / 30.05
 00:55 Overcast Showers N 5/0 (6/0) 19(65) 88 1018 / 30.06
 00:41 Overcast Showers N 6/0 (7/0) 19(66) 85 1018 / 30.06
 23:55 Overcast Showers NE 3/0 (3/0) 18(65) 96 1018 / 30.07
 23:34 Overcast Showers N 3/0 (3/0) 18(65) 96 1018 / 30.07
 22:55 Overcast Showers N 1/0 (1/0) 18(65) 96 1019 / 30.09
 22:14 Overcast Showers N 6/0 (7/0) 18(64) 96 1019 / 30.08
 21:55 Overcast Showers NNW 9/0 (10/0) 18(64) 96 1019 / 30.09
 20:55 Overcast Showers NNW 11/0 (13/0) 18(64) 97 1018 / 30.06
 20:15 Overcast Showers NNW 9/0 (10/0) 19(66) 94 1018 / 30.07
 19:55 Overcast Showers NNW 12/0 (14/0) 19(66) 94 1018 / 30.05
 18:55 Overcast Showers NNW 14/0 (16/0) 19(67) 94 1017 / 30.04
 17:55 Overcast Showers NW 14/0 (16/0) 21(69) 94 1016 / 30.01
 16:55 Overcast Showers NW 19/0 (22/0) 21(69) 94 1016 / 29.99
 16:41 Overcast Showers NW 21/0 (24/0) 24(75) 86 1015 / 29.97
 16:35 Overcast Showers NW 22/0 (25/0) 24(75) 86 1015 / 29.97
Observations from our AWOS sites are available here (password and username are both 'guest').